Time;durP1;ratioP1;P1;durP2;ratioP2;P2;SDS_P1;SDS_P2;PMS_P1;PMS_P2;Temp;Humidity;BMP_temperature;BMP_pressure;BME280_temperature;BME280_humidity;BME280_pressure;Samples;Min_cycle;Max_cycle;Signal;HPM_P1;HPM_P2
2021/08/09 01:30:13;;;;;;;;;;;;;;;;;;;;;
2021/08/09 03:10:29;;;;;;;;;;;;;;;;;;;;;
2021/08/09 04:15:58;;;;;;;;;;;;;;;;;;;;;
2021/08/09 06:29:31;;;;;;;;;;;;;;;;;;;;;
2021/08/09 06:32:46;;;;;;;;;;;;;;;;;;;;;
2021/08/09 08:33:43;;;;;;;;;;;;;;;;;;;;;
2021/08/09 08:41:01;;;;;;;;;;;;;;;;;;;;;
2021/08/09 08:59:06;;;;;;;;;;;;;;;;;;;;;
2021/08/09 09:01:39;;;;;;;8.90;5.93;;;27.60;74.30;;;;;;5958787;23;20025;-92
2021/08/09 10:39:18;;;;;;;;;;;;;;;;;;;;;
2021/08/09 10:42:57;;;;;;;;;;;;;;;;;;;;;
2021/08/09 10:49:58;;;;;;;;;;;;;;;;;;;;;
2021/08/09 10:52:37;;;;;;;6.10;5.50;;;29.30;67.20;;;;;;6065416;23;20018;-93
2021/08/09 10:55:36;;;;;;;5.65;5.15;;;29.40;66.90;;;;;;6063124;23;20045;-92
2021/08/09 10:58:53;;;;;;;7.40;6.07;;;29.40;67.00;;;;;;6082321;23;20042;-93
2021/08/09 11:05:30;;;;;;;7.65;5.72;;;29.40;66.30;;;;;;6148905;23;20012;-93
2021/08/09 11:15:10;;;;;;;;;;;;;;;;;;;;;
2021/08/09 11:18:28;;;;;;;6.70;6.05;;;29.30;66.20;;;;;;6164991;23;20033;-94
2021/08/09 11:38:48;;;;;;;;;;;;;;;;;;;;;
2021/08/09 11:44:56;;;;;;;5.93;5.35;;;29.70;64.70;;;;;;5905733;24;20042;-94
2021/08/09 11:47:34;;;;;;;5.95;4.80;;;29.70;64.90;;;;;;5909176;23;20027;-92
2021/08/09 11:50:40;;;;;;;6.45;4.57;;;29.70;65.40;;;;;;6207943;23;20000;-92
2021/08/09 11:57:59;;;;;;;6.10;5.20;;;29.90;64.50;;;;;;6083733;23;20007;-92
2021/08/09 12:08:07;;;;;;;;;;;;;;;;;;;;;
2021/08/09 12:19:13;;;;;;;;;;;;;;;;;;;;;
2021/08/09 12:28:59;;;;;;;4.70;4.25;;;30.40;60.00;;;;;;6005754;23;20022;-92
2021/08/09 13:11:37;;;;;;;;;;;;;;;;;;;;;
2021/08/09 13:18:33;;;;;;;3.08;2.88;;;33.50;49.60;;;;;;5835444;24;20014;-92
2021/08/09 13:28:05;;;;;;;4.15;3.33;;;34.50;48.20;;;;;;5900153;24;20012;-91
2021/08/09 13:31:11;;;;;;;3.70;3.38;;;34.40;48.20;;;;;;6059933;23;20463;-91
2021/08/09 13:41:47;;;;;;;7.38;3.45;;;34.40;47.00;;;;;;6097913;23;20114;-92
2021/08/09 13:58:37;;;;;;;;;;;;;;;;;;;;;
2021/08/09 14:15:58;;;;;;;4.65;3.40;;;35.90;43.90;;;;;;5994463;23;20413;-90
2021/08/09 14:22:26;;;;;;;;;;;;;;;;;;;;;
2021/08/09 14:25:30;;;;;;;;;;;;;;;;;;;;;
2021/08/09 14:35:22;;;;;;;;;;;;;;;;;;;;;
2021/08/09 14:45:01;;;;;;;4.03;3.10;;;37.10;42.80;;;;;;6005302;23;20011;-92
2021/08/09 14:48:17;;;;;;;;;;;;;;;;;;;;;
2021/08/09 14:51:40;;;;;;;;;;;;;;;;;;;;;
2021/08/09 14:55:11;;;;;;;;;;;;;;;;;;;;;
2021/08/09 14:58:21;;;;;;;3.25;2.95;;;36.90;42.20;;;;;;6043123;23;20106;-92
2021/08/09 15:01:18;;;;;;;;;;;;;;;;;;;;;
2021/08/09 15:11:22;;;;;;;;;;;;;;;;;;;;;
2021/08/09 15:14:23;;;;;;;;;;;;;;;;;;;;;
2021/08/09 15:31:32;;;;;;;;;;;;;;;;;;;;;
2021/08/09 15:34:42;;;;;;;2.85;2.65;;;38.40;39.40;;;;;;5989418;23;20046;-93
2021/08/09 17:24:37;;;;;;;2.70;2.35;;;27.90;53.20;;;;;;6242732;23;20104;-91
2021/08/09 17:27:03;;;;;;;3.55;2.20;;;27.70;53.10;;;;;;6229090;23;20051;-91
2021/08/09 17:29:33;;;;;;;3.10;2.72;;;27.60;53.00;;;;;;6232739;23;20039;-91
2021/08/09 17:32:26;;;;;;;2.47;2.30;;;27.50;53.20;;;;;;6232006;23;20000;-90
2021/08/09 17:34:52;;;;;;;2.67;2.47;;;27.40;54.40;;;;;;6227411;23;20138;-91
2021/08/09 17:37:21;;;;;;;3.13;2.83;;;27.30;54.00;;;;;;6227685;23;20008;-92
2021/08/09 17:39:55;;;;;;;3.60;2.78;;;27.30;54.40;;;;;;6253247;23;19993;-91
2021/08/09 17:42:26;;;;;;;3.90;3.45;;;27.20;55.50;;;;;;6229331;23;20001;-93
2021/08/09 17:44:55;;;;;;;2.92;2.63;;;27.20;55.50;;;;;;6228607;23;19996;-92
2021/08/09 17:47:26;;;;;;;3.35;3.05;;;27.10;55.60;;;;;;6228002;23;20004;-91
2021/08/09 17:50:01;;;;;;;3.50;3.17;;;27.00;56.30;;;;;;6229511;23;20458;-92
2021/08/09 17:52:27;;;;;;;3.03;2.78;;;26.90;56.70;;;;;;6230680;23;20024;-92
2021/08/09 17:55:13;;;;;;;2.92;2.63;;;26.90;56.90;;;;;;6231229;23;20008;-91
2021/08/09 17:58:01;;;;;;;3.50;2.80;;;26.80;57.20;;;;;;6255488;23;20012;-92
2021/08/09 18:00:31;;;;;;;2.85;2.65;;;26.70;57.60;;;;;;6230489;23;20000;-92
2021/08/09 18:03:02;;;;;;;3.75;3.00;;;26.60;58.10;;;;;;6229580;23;20004;-92
2021/08/09 18:08:21;;;;;;;;;;;26.50;57.80;;;;;;6241590;23;20019;-92
2021/08/09 18:10:50;;;;;;;2.83;2.60;;;26.50;58.80;;;;;;6230706;23;19900;-92
2021/08/09 18:13:35;;;;;;;;;;;;;;;;;;;;;
2021/08/09 18:16:17;;;;;;;;;;;;;;;;;;;;;
2021/08/09 18:18:45;;;;;;;3.17;2.88;;;26.30;57.80;;;;;;6258763;23;20051;-92
2021/08/09 18:21:16;;;;;;;3.33;3.03;;;26.30;57.80;;;;;;6232111;23;19996;-92
2021/08/09 18:23:44;;;;;;;4.57;2.95;;;26.30;57.80;;;;;;6234853;23;20003;-91
2021/08/09 18:26:11;;;;;;;4.55;2.97;;;26.30;57.80;;;;;;6230968;23;20024;-92
2021/08/09 18:28:46;;;;;;;3.17;2.88;;;26.30;57.70;;;;;;6231505;23;20027;-92
2021/08/09 18:31:38;;;;;;;3.40;2.85;;;26.20;57.50;;;;;;6230803;23;20003;-91
2021/08/09 18:34:07;;;;;;;3.05;2.75;;;26.20;57.40;;;;;;6256135;23;20430;-92
2021/08/09 18:36:36;;;;;;;2.63;2.42;;;26.10;57.30;;;;;;6231936;23;20004;-92
2021/08/09 18:39:07;;;;;;;4.30;3.05;;;26.10;57.40;;;;;;6230686;23;20008;-92
2021/08/09 18:41:40;;;;;;;2.47;2.25;;;26.10;57.60;;;;;;6230745;23;20001;-92
2021/08/09 18:44:31;;;;;;;2.53;2.33;;;26.10;57.60;;;;;;6231151;23;20312;-91
2021/08/09 18:47:02;;;;;;;3.50;3.20;;;26.00;57.80;;;;;;6231026;23;20015;-91
2021/08/09 18:49:36;;;;;;;2.92;2.70;;;26.00;58.20;;;;;;6229646;23;20004;-91
2021/08/09 18:52:04;;;;;;;3.22;2.92;;;25.90;58.10;;;;;;6231555;23;20004;-91
2021/08/09 18:54:40;;;;;;;3.85;3.08;;;25.90;58.30;;;;;;6230550;23;19997;-91
2021/08/09 18:57:11;;;;;;;4.07;3.67;;;25.80;58.40;;;;;;6230012;23;20000;-91
2021/08/09 18:59:42;;;;;;;3.30;3.00;;;25.80;58.50;;;;;;6230249;23;20003;-92
2021/08/09 19:02:18;;;;;;;3.03;2.80;;;25.80;58.40;;;;;;6229996;23;20000;-91
2021/08/09 19:04:48;;;;;;;4.55;2.72;;;25.80;58.30;;;;;;6257803;23;20443;-92
2021/08/09 19:07:15;;;;;;;2.75;2.53;;;25.80;58.20;;;;;;6230827;23;20087;-92
2021/08/09 19:09:47;;;;;;;3.03;2.80;;;25.80;58.30;;;;;;6230861;23;20328;-91
2021/08/09 19:12:16;;;;;;;3.05;2.75;;;25.80;58.40;;;;;;6231380;23;20000;-92
2021/08/09 19:14:52;;;;;;;6.13;3.00;;;25.80;58.40;;;;;;6230609;23;20087;-91
2021/08/09 19:17:20;;;;;;;3.30;3.00;;;25.80;58.50;;;;;;6230753;23;20042;-91
2021/08/09 19:19:52;;;;;;;3.25;2.95;;;25.70;58.50;;;;;;6231496;23;20037;-92
2021/08/09 19:22:20;;;;;;;3.25;2.95;;;25.70;58.80;;;;;;6257379;23;19992;-91
2021/08/09 19:24:51;;;;;;;3.25;2.95;;;25.70;59.20;;;;;;6233639;23;20476;-91
2021/08/09 19:27:19;;;;;;;2.97;2.75;;;25.70;59.20;;;;;;6234793;23;20423;-91
2021/08/09 19:29:48;;;;;;;4.63;3.40;;;25.60;59.30;;;;;;6234497;23;20008;-91
2021/08/09 19:32:23;;;;;;;4.88;3.55;;;25.60;59.40;;;;;;6235039;23;20000;-91
2021/08/09 19:34:57;;;;;;;4.07;3.45;;;25.50;59.50;;;;;;6235707;23;20070;-91
2021/08/09 19:37:40;;;;;;;3.45;3.15;;;25.50;59.60;;;;;;6256980;23;20008;-92
2021/08/09 19:40:13;;;;;;;4.25;3.65;;;25.40;59.60;;;;;;6229365;23;20000;-92
2021/08/09 19:42:42;;;;;;;3.30;3.00;;;25.40;59.80;;;;;;6229932;23;20027;-91
2021/08/09 19:45:20;;;;;;;4.38;3.22;;;25.30;59.90;;;;;;6229611;23;20007;-92
2021/08/09 19:47:54;;;;;;;3.65;2.97;;;25.40;60.00;;;;;;6230587;23;20004;-92
2021/08/09 19:50:32;;;;;;;3.90;3.20;;;25.30;60.10;;;;;;6229940;23;20023;-92
2021/08/09 19:53:24;;;;;;;6.85;3.53;;;25.30;60.20;;;;;;6229121;23;20055;-92
2021/08/09 19:55:49;;;;;;;3.80;3.47;;;25.30;60.10;;;;;;6256039;23;20004;-91
2021/08/09 19:58:24;;;;;;;3.13;2.85;;;25.30;60.40;;;;;;6230076;23;20451;-91
2021/08/09 20:00:49;;;;;;;4.60;2.92;;;25.30;60.30;;;;;;6228479;23;20004;-92
2021/08/09 20:03:17;;;;;;;4.25;3.10;;;25.30;60.40;;;;;;6229164;23;20011;-92
2021/08/09 20:05:42;;;;;;;3.42;3.13;;;25.20;60.60;;;;;;6228851;23;20032;-92
2021/08/09 20:08:08;;;;;;;3.60;3.30;;;25.20;60.60;;;;;;6228759;23;20308;-92
2021/08/09 20:10:42;;;;;;;3.58;3.00;;;25.20;60.60;;;;;;6229186;23;20131;-92
2021/08/09 20:13:09;;;;;;;3.40;3.10;;;25.10;60.50;;;;;;6228696;23;20004;-92
2021/08/09 20:15:35;;;;;;;3.25;2.95;;;25.10;60.60;;;;;;6228598;23;20000;-92
2021/08/09 20:21:24;;;;;;;4.95;3.55;;;25.10;60.50;;;;;;6245457;23;20000;-92
2021/08/09 20:24:13;;;;;;;3.45;3.15;;;25.10;60.60;;;;;;6230631;23;20089;-92
2021/08/09 20:27:04;;;;;;;;;;;;;;;;;;;;;
2021/08/09 20:29:38;;;;;;;3.80;3.42;;;24.90;60.60;;;;;;6195668;23;20016;-91
2021/08/09 20:32:07;;;;;;;4.00;3.50;;;24.90;60.70;;;;;;6194295;23;20044;-92
2021/08/09 20:34:44;;;;;;;;;;;;;;;;;;;;;
2021/08/09 20:37:10;;;;;;;3.53;2.92;;;24.80;60.90;;;;;;6193010;23;20028;-91
2021/08/09 20:39:45;;;;;;;3.53;3.03;;;24.70;61.50;;;;;;6192446;23;20012;-91
2021/08/09 20:42:26;;;;;;;;;;;;;;;;;;;;;
2021/08/09 20:44:58;;;;;;;4.78;3.72;;;24.60;61.30;;;;;;6197209;23;20033;-91
2021/08/09 20:47:28;;;;;;;5.70;4.13;;;24.50;61.20;;;;;;6193972;23;20009;-92
2021/08/09 20:50:07;;;;;;;4.55;3.67;;;24.50;61.10;;;;;;6196374;23;20081;-92
2021/08/09 20:52:53;;;;;;;4.40;3.70;;;24.50;61.10;;;;;;6195984;23;19993;-91
2021/08/09 20:55:18;;;;;;;4.50;4.10;;;24.50;61.10;;;;;;6198116;23;19997;-91
2021/08/09 20:58:20;;;;;;;5.55;4.00;;;24.50;61.00;;;;;;6197192;23;20048;-90
2021/08/09 21:00:46;;;;;;;4.32;3.90;;;24.50;60.90;;;;;;6188750;23;20341;-91
2021/08/09 21:03:18;;;;;;;4.53;3.47;;;24.40;60.80;;;;;;6194891;23;19997;-91
2021/08/09 21:05:46;;;;;;;4.85;3.95;;;24.40;60.90;;;;;;6194721;23;20417;-91
2021/08/09 21:08:24;;;;;;;3.95;3.50;;;24.40;60.90;;;;;;6192728;23;20063;-92
2021/08/09 21:10:57;;;;;;;5.18;3.70;;;24.40;61.00;;;;;;6193406;23;20008;-91
2021/08/09 21:13:26;;;;;;;6.13;3.85;;;24.40;61.20;;;;;;6194402;23;20027;-91
2021/08/09 21:15:57;;;;;;;4.72;3.70;;;24.30;61.20;;;;;;6195022;23;20006;-91
2021/08/09 21:18:45;;;;;;;3.53;3.22;;;24.30;61.30;;;;;;6194740;23;20032;-91
2021/08/09 21:21:19;;;;;;;5.70;3.85;;;24.20;61.30;;;;;;6194910;23;20088;-91
2021/08/09 21:23:44;;;;;;;;;;;24.20;61.40;;;;;;6194553;23;20416;-91
2021/08/09 21:26:11;;;;;;;4.75;3.90;;;24.10;62.10;;;;;;6196348;23;19923;-91
2021/08/09 21:28:47;;;;;;;4.15;3.75;;;24.10;61.80;;;;;;6199722;23;20015;-91
2021/08/09 21:31:15;;;;;;;3.70;3.40;;;24.00;61.80;;;;;;6200270;23;20329;-90
2021/08/09 21:33:46;;;;;;;3.95;3.53;;;24.00;61.80;;;;;;6199341;23;20002;-90
2021/08/09 21:36:12;;;;;;;3.70;3.40;;;23.90;61.80;;;;;;6199534;23;20001;-90
2021/08/09 21:38:44;;;;;;;5.35;4.35;;;23.90;62.00;;;;;;6196099;23;20006;-91
2021/08/09 21:41:13;;;;;;;4.40;4.00;;;23.80;61.90;;;;;;6194785;23;19997;-91
2021/08/09 21:43:44;;;;;;;4.75;3.75;;;23.80;61.90;;;;;;6195717;23;20421;-91
2021/08/09 21:46:12;;;;;;;4.90;3.85;;;23.80;62.00;;;;;;6194367;23;20025;-91
2021/08/09 21:48:38;;;;;;;4.55;3.58;;;23.80;62.00;;;;;;6195949;23;20417;-91
2021/08/09 21:51:11;;;;;;;5.25;3.33;;;23.80;62.30;;;;;;6194164;23;19998;-91
2021/08/09 21:53:44;;;;;;;4.13;3.72;;;23.80;62.20;;;;;;6194034;23;20092;-91
2021/08/09 21:56:10;;;;;;;4.45;3.88;;;23.80;62.20;;;;;;6193847;23;20001;-91
2021/08/09 21:58:45;;;;;;;4.60;3.95;;;23.80;62.30;;;;;;6193057;23;20056;-91
2021/08/09 22:01:13;;;;;;;4.53;3.50;;;23.80;62.40;;;;;;6193753;23;20055;-91
2021/08/09 22:03:41;;;;;;;4.68;3.60;;;23.80;62.50;;;;;;6193858;23;19998;-91
2021/08/09 22:06:09;;;;;;;4.22;3.75;;;23.80;62.70;;;;;;6194581;23;20043;-91
2021/08/09 22:08:38;;;;;;;9.68;3.97;;;23.80;63.10;;;;;;6192864;23;20437;-91
2021/08/09 22:11:05;;;;;;;3.90;3.60;;;23.80;63.00;;;;;;6195393;23;20437;-91
2021/08/09 22:13:33;;;;;;;4.13;3.28;;;23.80;63.20;;;;;;6193150;23;20128;-91
2021/08/09 22:16:14;;;;;;;3.88;3.40;;;23.70;63.10;;;;;;6193097;23;20060;-92
2021/08/09 22:18:46;;;;;;;4.93;3.67;;;23.70;63.30;;;;;;6195151;23;20016;-91
2021/08/09 22:21:13;;;;;;;4.25;3.75;;;23.70;63.50;;;;;;6193636;23;20008;-91
2021/08/09 22:23:44;;;;;;;4.60;3.70;;;23.70;63.80;;;;;;6195440;23;20004;-91
2021/08/09 22:26:12;;;;;;;3.75;3.38;;;23.60;63.80;;;;;;6193380;23;20021;-91
2021/08/09 22:28:59;;;;;;;4.18;3.75;;;23.60;63.90;;;;;;6193002;23;20039;-91
2021/08/09 22:31:28;;;;;;;4.55;3.63;;;23.50;64.00;;;;;;6193584;23;20005;-91
2021/08/09 22:33:54;;;;;;;4.78;4.25;;;23.50;64.60;;;;;;6193940;23;20036;-91
2021/08/09 22:36:32;;;;;;;4.43;3.47;;;23.40;64.00;;;;;;6192477;23;20001;-91
2021/08/09 22:39:00;;;;;;;4.40;4.00;;;23.40;64.20;;;;;;6195411;23;20005;-91
2021/08/09 22:41:29;;;;;;;4.13;3.40;;;23.40;64.30;;;;;;6194309;23;20032;-91
2021/08/09 22:44:05;;;;;;;5.07;3.80;;;23.30;64.40;;;;;;6194062;23;20016;-91
2021/08/09 22:46:36;;;;;;;4.20;3.80;;;23.20;64.50;;;;;;6196536;23;20001;-91
2021/08/09 22:49:10;;;;;;;4.50;4.10;;;23.20;64.70;;;;;;6194742;23;20039;-91
2021/08/09 22:51:39;;;;;;;4.80;4.25;;;23.20;65.10;;;;;;6194487;23;20032;-91
2021/08/09 22:54:08;;;;;;;4.30;3.90;;;23.20;65.40;;;;;;6196917;23;20016;-91
2021/08/09 22:56:36;;;;;;;4.20;3.80;;;23.20;65.40;;;;;;6194837;23;20002;-91
2021/08/09 22:59:02;;;;;;;5.45;4.60;;;23.20;65.70;;;;;;6194689;23;20016;-91
2021/08/09 23:01:28;;;;;;;7.10;4.63;;;23.20;66.00;;;;;;6195352;23;20076;-90
2021/08/09 23:04:03;;;;;;;7.30;4.70;;;23.20;66.50;;;;;;6194820;23;20008;-91
2021/08/09 23:06:42;;;;;;;6.95;4.82;;;23.10;66.70;;;;;;6195349;23;20005;-91
2021/08/09 23:09:08;;;;;;;5.10;4.60;;;23.10;67.50;;;;;;6196339;23;20005;-91
2021/08/09 23:11:39;;;;;;;4.88;4.38;;;23.10;67.30;;;;;;6195046;23;20001;-91
2021/08/09 23:14:12;;;;;;;7.15;4.97;;;23.10;68.20;;;;;;6193743;23;20012;-90
2021/08/09 23:16:38;;;;;;;5.43;4.63;;;23.10;68.70;;;;;;6195095;23;20004;-91
2021/08/09 23:19:06;;;;;;;5.13;4.50;;;23.10;68.30;;;;;;6194848;23;20005;-90
2021/08/09 23:21:43;;;;;;;6.32;4.30;;;23.10;68.50;;;;;;6196419;23;19997;-90
2021/08/09 23:24:12;;;;;;;6.25;4.22;;;23.10;69.20;;;;;;6194935;23;20012;-90
2021/08/09 23:26:43;;;;;;;5.40;4.57;;;23.10;69.20;;;;;;6197975;23;20024;-90
2021/08/09 23:29:19;;;;;;;6.15;4.68;;;23.10;69.50;;;;;;6200133;23;20313;-89
2021/08/09 23:31:56;;;;;;;5.10;4.43;;;23.00;69.60;;;;;;6201137;23;20064;-90
2021/08/09 23:34:22;;;;;;;5.07;4.55;;;23.00;69.50;;;;;;6202094;23;19997;-90
2021/08/09 23:36:48;;;;;;;4.72;4.22;;;23.00;69.80;;;;;;6200608;23;20024;-89
2021/08/09 23:39:14;;;;;;;5.13;4.63;;;23.00;69.90;;;;;;6194907;23;20006;-91
2021/08/09 23:41:47;;;;;;;6.20;5.20;;;23.00;69.90;;;;;;6194049;23;20001;-90
2021/08/09 23:44:12;;;;;;;5.15;4.65;;;23.00;70.30;;;;;;6193415;23;20081;-90
2021/08/09 23:46:56;;;;;;;8.00;5.43;;;22.90;70.30;;;;;;6193724;23;19997;-90
2021/08/09 23:49:27;;;;;;;6.32;4.72;;;22.90;70.40;;;;;;6193991;23;20016;-90
2021/08/09 23:51:55;;;;;;;5.82;5.13;;;22.90;70.70;;;;;;6192395;23;20015;-91
2021/08/09 23:54:24;;;;;;;5.88;5.18;;;22.90;70.70;;;;;;6191967;23;20077;-91
2021/08/09 23:56:52;;;;;;;5.32;4.82;;;22.90;70.90;;;;;;6192706;23;19997;-91
2021/08/09 23:59:29;;;;;;;4.75;4.22;;;22.80;71.20;;;;;;6191847;23;20432;-91
